Colinas del Este, Puerto Rico
Current Conditions -  °F | °C
As of 4:53 PM on Thursday 18 Dec 2014 (Local Time) from TJNR Reporting Station
Overcast Overcast  
Wind Chill: 80°   Ceiling: 7000
Heat Index: 82°   Visibility: 10mi
Dew Point: 67°   Wind: 8mph
Humidity: 64%   Direction: 60°ENE
Pressure: 29.99"   Gusts: NA
Location:  18.1494°N, 65.8294°W
Report Text: TJNR 182053Z AUTO 06007KT 10SM OVC070 27/19 A2999 RMK AO2 SLP155 T02670194 55003 $
Loading
Personal Weather Stations






























Interactive Weather Map New forecast layout! Learn more

10-Day Weather Forecast

Advertisements
Track Severe Weather on mobile